sensor_id;sensor_type;location;lat;lon;timestamp;P1;durP1;ratioP1;P2;durP2;ratioP2
34302;SDS011;20785;50.020;19.916;2022-12-24T00:06:03;28.77;;;18.07;;
34302;SDS011;20785;50.020;19.916;2022-12-24T00:12:09;31.57;;;18.05;;
34302;SDS011;20785;50.020;19.916;2022-12-24T00:18:10;30.27;;;18.65;;
34302;SDS011;20785;50.020;19.916;2022-12-24T00:24:11;31.97;;;19.02;;
34302;SDS011;20785;50.020;19.916;2022-12-24T00:30:12;31.12;;;17.62;;
34302;SDS011;20785;50.020;19.916;2022-12-24T00:36:13;28.45;;;17.12;;
34302;SDS011;20785;50.020;19.916;2022-12-24T00:42:14;29.45;;;17.37;;
34302;SDS011;20785;50.020;19.916;2022-12-24T00:48:15;27.55;;;16.23;;
34302;SDS011;20785;50.020;19.916;2022-12-24T00:54:16;25.95;;;16.05;;
34302;SDS011;20785;50.020;19.916;2022-12-24T01:00:18;28.25;;;16.05;;
34302;SDS011;20785;50.020;19.916;2022-12-24T01:06:20;26.12;;;15.60;;
34302;SDS011;20785;50.020;19.916;2022-12-24T01:12:21;27.00;;;15.88;;
34302;SDS011;20785;50.020;19.916;2022-12-24T01:18:24;26.35;;;15.72;;
34302;SDS011;20785;50.020;19.916;2022-12-24T01:24:27;24.20;;;14.93;;
34302;SDS011;20785;50.020;19.916;2022-12-24T01:30:28;24.15;;;15.15;;
34302;SDS011;20785;50.020;19.916;2022-12-24T01:36:30;22.93;;;14.05;;
34302;SDS011;20785;50.020;19.916;2022-12-24T01:42:31;13.32;;;8.65;;
34302;SDS011;20785;50.020;19.916;2022-12-24T01:48:52;10.68;;;5.85;;
34302;SDS011;20785;50.020;19.916;2022-12-24T01:55:04;6.47;;;4.05;;
34302;SDS011;20785;50.020;19.916;2022-12-24T02:01:03;7.80;;;4.20;;
34302;SDS011;20785;50.020;19.916;2022-12-24T02:07:04;6.33;;;3.30;;
34302;SDS011;20785;50.020;19.916;2022-12-24T02:13:06;5.90;;;3.20;;
34302;SDS011;20785;50.020;19.916;2022-12-24T02:19:13;5.08;;;3.08;;
34302;SDS011;20785;50.020;19.916;2022-12-24T02:31:42;10.00;;;5.87;;
34302;SDS011;20785;50.020;19.916;2022-12-24T02:37:50;11.48;;;7.12;;
34302;SDS011;20785;50.020;19.916;2022-12-24T02:43:48;12.53;;;7.37;;
34302;SDS011;20785;50.020;19.916;2022-12-24T02:49:50;10.48;;;6.65;;
34302;SDS011;20785;50.020;19.916;2022-12-24T03:15:04;8.03;;;5.05;;
34302;SDS011;20785;50.020;19.916;2022-12-24T03:27:29;10.35;;;6.58;;
34302;SDS011;20785;50.020;19.916;2022-12-24T03:33:32;12.63;;;8.13;;
34302;SDS011;20785;50.020;19.916;2022-12-24T03:39:33;15.05;;;9.05;;
34302;SDS011;20785;50.020;19.916;2022-12-24T03:45:34;15.13;;;9.13;;
34302;SDS011;20785;50.020;19.916;2022-12-24T03:51:35;22.20;;;12.80;;
34302;SDS011;20785;50.020;19.916;2022-12-24T03:57:36;21.55;;;12.58;;
34302;SDS011;20785;50.020;19.916;2022-12-24T04:03:38;15.70;;;9.60;;
34302;SDS011;20785;50.020;19.916;2022-12-24T04:09:39;17.73;;;11.25;;
34302;SDS011;20785;50.020;19.916;2022-12-24T04:15:40;20.32;;;12.43;;
34302;SDS011;20785;50.020;19.916;2022-12-24T04:21:42;21.07;;;12.60;;
34302;SDS011;20785;50.020;19.916;2022-12-24T04:27:43;17.35;;;10.40;;
34302;SDS011;20785;50.020;19.916;2022-12-24T04:33:44;29.45;;;18.50;;
34302;SDS011;20785;50.020;19.916;2022-12-24T04:39:45;34.80;;;18.92;;
34302;SDS011;20785;50.020;19.916;2022-12-24T04:45:46;31.45;;;17.70;;
34302;SDS011;20785;50.020;19.916;2022-12-24T04:51:48;28.35;;;15.95;;
34302;SDS011;20785;50.020;19.916;2022-12-24T04:57:49;24.80;;;14.75;;
34302;SDS011;20785;50.020;19.916;2022-12-24T05:03:50;24.85;;;15.03;;
34302;SDS011;20785;50.020;19.916;2022-12-24T05:09:51;23.47;;;13.95;;
34302;SDS011;20785;50.020;19.916;2022-12-24T05:15:52;19.82;;;12.63;;
34302;SDS011;20785;50.020;19.916;2022-12-24T05:21:53;20.92;;;11.88;;
34302;SDS011;20785;50.020;19.916;2022-12-24T05:28:14;18.77;;;11.35;;
34302;SDS011;20785;50.020;19.916;2022-12-24T05:34:15;21.07;;;12.50;;
34302;SDS011;20785;50.020;19.916;2022-12-24T05:40:17;22.60;;;12.55;;
34302;SDS011;20785;50.020;19.916;2022-12-24T05:46:18;20.27;;;11.65;;
34302;SDS011;20785;50.020;19.916;2022-12-24T05:52:20;20.32;;;11.30;;
34302;SDS011;20785;50.020;19.916;2022-12-24T05:58:21;18.62;;;10.43;;
34302;SDS011;20785;50.020;19.916;2022-12-24T06:04:22;18.75;;;10.82;;
34302;SDS011;20785;50.020;19.916;2022-12-24T06:10:23;17.23;;;10.18;;
34302;SDS011;20785;50.020;19.916;2022-12-24T06:16:25;16.95;;;10.55;;
34302;SDS011;20785;50.020;19.916;2022-12-24T06:22:26;16.48;;;9.38;;
34302;SDS011;20785;50.020;19.916;2022-12-24T06:28:32;18.07;;;10.50;;
34302;SDS011;20785;50.020;19.916;2022-12-24T06:34:30;18.17;;;10.43;;
34302;SDS011;20785;50.020;19.916;2022-12-24T06:40:31;15.68;;;9.78;;
34302;SDS011;20785;50.020;19.916;2022-12-24T06:46:32;17.55;;;10.23;;
34302;SDS011;20785;50.020;19.916;2022-12-24T06:52:34;13.95;;;9.25;;
34302;SDS011;20785;50.020;19.916;2022-12-24T06:58:35;18.32;;;10.65;;
34302;SDS011;20785;50.020;19.916;2022-12-24T07:04:36;17.30;;;10.60;;
34302;SDS011;20785;50.020;19.916;2022-12-24T07:10:37;17.15;;;10.93;;
34302;SDS011;20785;50.020;19.916;2022-12-24T07:16:38;18.27;;;10.35;;
34302;SDS011;20785;50.020;19.916;2022-12-24T07:22:39;18.30;;;11.35;;
34302;SDS011;20785;50.020;19.916;2022-12-24T07:28:41;17.25;;;10.35;;
34302;SDS011;20785;50.020;19.916;2022-12-24T07:34:42;15.53;;;9.63;;
34302;SDS011;20785;50.020;19.916;2022-12-24T07:40:44;16.35;;;10.32;;
34302;SDS011;20785;50.020;19.916;2022-12-24T07:46:45;13.65;;;9.40;;
34302;SDS011;20785;50.020;19.916;2022-12-24T07:52:46;14.98;;;9.58;;
34302;SDS011;20785;50.020;19.916;2022-12-24T07:58:49;12.35;;;8.95;;
34302;SDS011;20785;50.020;19.916;2022-12-24T08:04:52;14.47;;;9.50;;
34302;SDS011;20785;50.020;19.916;2022-12-24T08:10:53;12.10;;;9.10;;
34302;SDS011;20785;50.020;19.916;2022-12-24T08:16:58;17.52;;;11.03;;
34302;SDS011;20785;50.020;19.916;2022-12-24T08:23:01;16.20;;;10.78;;
34302;SDS011;20785;50.020;19.916;2022-12-24T08:29:02;19.85;;;12.78;;
34302;SDS011;20785;50.020;19.916;2022-12-24T08:35:04;17.70;;;11.78;;
34302;SDS011;20785;50.020;19.916;2022-12-24T08:41:05;14.38;;;9.65;;
34302;SDS011;20785;50.020;19.916;2022-12-24T08:47:07;13.40;;;8.40;;
34302;SDS011;20785;50.020;19.916;2022-12-24T08:53:08;12.53;;;7.97;;
34302;SDS011;20785;50.020;19.916;2022-12-24T08:59:10;11.48;;;7.12;;
34302;SDS011;20785;50.020;19.916;2022-12-24T09:05:11;11.40;;;7.03;;
34302;SDS011;20785;50.020;19.916;2022-12-24T09:11:17;11.48;;;6.10;;
34302;SDS011;20785;50.020;19.916;2022-12-24T09:17:20;10.43;;;5.15;;
34302;SDS011;20785;50.020;19.916;2022-12-24T09:23:21;8.38;;;4.30;;
34302;SDS011;20785;50.020;19.916;2022-12-24T09:29:22;6.33;;;3.98;;
34302;SDS011;20785;50.020;19.916;2022-12-24T09:35:23;8.38;;;3.98;;
34302;SDS011;20785;50.020;19.916;2022-12-24T09:41:46;8.95;;;4.17;;
34302;SDS011;20785;50.020;19.916;2022-12-24T09:47:52;6.80;;;3.77;;
34302;SDS011;20785;50.020;19.916;2022-12-24T09:54:00;6.20;;;3.37;;
34302;SDS011;20785;50.020;19.916;2022-12-24T10:00:17;6.50;;;2.85;;
34302;SDS011;20785;50.020;19.916;2022-12-24T10:06:21;4.90;;;2.65;;
34302;SDS011;20785;50.020;19.916;2022-12-24T10:12:43;5.37;;;2.72;;
34302;SDS011;20785;50.020;19.916;2022-12-24T10:19:04;6.30;;;2.65;;
34302;SDS011;20785;50.020;19.916;2022-12-24T10:31:16;7.73;;;2.60;;
34302;SDS011;20785;50.020;19.916;2022-12-24T10:37:21;5.30;;;2.37;;
34302;SDS011;20785;50.020;19.916;2022-12-24T10:43:24;5.70;;;2.50;;
34302;SDS011;20785;50.020;19.916;2022-12-24T10:55:31;5.67;;;2.45;;
34302;SDS011;20785;50.020;19.916;2022-12-24T11:01:44;5.60;;;2.67;;
34302;SDS011;20785;50.020;19.916;2022-12-24T11:07:47;4.33;;;2.22;;
34302;SDS011;20785;50.020;19.916;2022-12-24T11:19:56;5.67;;;2.60;;
34302;SDS011;20785;50.020;19.916;2022-12-24T11:26:02;8.68;;;2.87;;
34302;SDS011;20785;50.020;19.916;2022-12-24T11:32:15;6.20;;;2.77;;
34302;SDS011;20785;50.020;19.916;2022-12-24T11:38:21;7.70;;;3.27;;
34302;SDS011;20785;50.020;19.916;2022-12-24T11:44:27;6.95;;;2.70;;
34302;SDS011;20785;50.020;19.916;2022-12-24T11:50:32;5.78;;;2.67;;
34302;SDS011;20785;50.020;19.916;2022-12-24T11:56:46;7.37;;;3.20;;
34302;SDS011;20785;50.020;19.916;2022-12-24T12:02:48;7.45;;;2.77;;
34302;SDS011;20785;50.020;19.916;2022-12-24T12:09:12;7.53;;;3.52;;
34302;SDS011;20785;50.020;19.916;2022-12-24T12:15:56;11.27;;;4.00;;
34302;SDS011;20785;50.020;19.916;2022-12-24T12:21:59;7.08;;;3.50;;
34302;SDS011;20785;50.020;19.916;2022-12-24T12:28:21;10.63;;;3.90;;
34302;SDS011;20785;50.020;19.916;2022-12-24T12:34:29;7.35;;;3.33;;
34302;SDS011;20785;50.020;19.916;2022-12-24T12:40:46;9.35;;;3.85;;
34302;SDS011;20785;50.020;19.916;2022-12-24T12:47:07;9.18;;;3.75;;
34302;SDS011;20785;50.020;19.916;2022-12-24T12:53:22;8.88;;;4.10;;
34302;SDS011;20785;50.020;19.916;2022-12-24T13:00:16;9.23;;;3.85;;
34302;SDS011;20785;50.020;19.916;2022-12-24T13:12:35;10.05;;;3.98;;
34302;SDS011;20785;50.020;19.916;2022-12-24T13:18:54;11.88;;;4.67;;
34302;SDS011;20785;50.020;19.916;2022-12-24T13:25:19;9.10;;;3.98;;
34302;SDS011;20785;50.020;19.916;2022-12-24T13:31:22;9.95;;;5.30;;
34302;SDS011;20785;50.020;19.916;2022-12-24T13:44:00;10.23;;;4.97;;
34302;SDS011;20785;50.020;19.916;2022-12-24T13:50:01;12.23;;;5.15;;
34302;SDS011;20785;50.020;19.916;2022-12-24T13:56:06;11.43;;;5.28;;
34302;SDS011;20785;50.020;19.916;2022-12-24T14:14:28;15.23;;;7.12;;
34302;SDS011;20785;50.020;19.916;2022-12-24T14:20:37;20.80;;;10.32;;
34302;SDS011;20785;50.020;19.916;2022-12-24T14:26:46;20.15;;;11.00;;
34302;SDS011;20785;50.020;19.916;2022-12-24T14:32:49;20.85;;;11.45;;
34302;SDS011;20785;50.020;19.916;2022-12-24T14:38:51;24.15;;;13.20;;
34302;SDS011;20785;50.020;19.916;2022-12-24T14:57:27;18.92;;;9.40;;
34302;SDS011;20785;50.020;19.916;2022-12-24T15:03:29;18.57;;;9.07;;
34302;SDS011;20785;50.020;19.916;2022-12-24T15:09:31;16.62;;;8.30;;
34302;SDS011;20785;50.020;19.916;2022-12-24T15:15:34;16.07;;;7.45;;
34302;SDS011;20785;50.020;19.916;2022-12-24T15:21:36;20.08;;;8.45;;
34302;SDS011;20785;50.020;19.916;2022-12-24T15:27:40;18.23;;;8.28;;
34302;SDS011;20785;50.020;19.916;2022-12-24T15:33:44;19.77;;;10.38;;
34302;SDS011;20785;50.020;19.916;2022-12-24T15:39:53;19.62;;;9.73;;
34302;SDS011;20785;50.020;19.916;2022-12-24T15:45:57;17.02;;;9.70;;
34302;SDS011;20785;50.020;19.916;2022-12-24T15:52:02;26.10;;;10.40;;
34302;SDS011;20785;50.020;19.916;2022-12-24T15:58:21;20.57;;;9.65;;
34302;SDS011;20785;50.020;19.916;2022-12-24T16:04:24;19.02;;;10.08;;
34302;SDS011;20785;50.020;19.916;2022-12-24T16:10:28;21.65;;;9.45;;
34302;SDS011;20785;50.020;19.916;2022-12-24T16:16:30;19.55;;;9.38;;
34302;SDS011;20785;50.020;19.916;2022-12-24T16:22:34;17.23;;;8.30;;
34302;SDS011;20785;50.020;19.916;2022-12-24T16:28:35;18.30;;;8.23;;
34302;SDS011;20785;50.020;19.916;2022-12-24T16:34:39;19.15;;;8.30;;
34302;SDS011;20785;50.020;19.916;2022-12-24T16:40:40;16.12;;;8.35;;
34302;SDS011;20785;50.020;19.916;2022-12-24T16:46:42;18.10;;;8.73;;
34302;SDS011;20785;50.020;19.916;2022-12-24T16:52:43;18.42;;;9.03;;
34302;SDS011;20785;50.020;19.916;2022-12-24T16:58:44;23.50;;;9.78;;
34302;SDS011;20785;50.020;19.916;2022-12-24T17:04:49;20.40;;;10.45;;
34302;SDS011;20785;50.020;19.916;2022-12-24T17:10:51;25.85;;;14.87;;
34302;SDS011;20785;50.020;19.916;2022-12-24T17:16:52;20.85;;;8.15;;
34302;SDS011;20785;50.020;19.916;2022-12-24T17:22:53;17.07;;;7.65;;
34302;SDS011;20785;50.020;19.916;2022-12-24T17:28:55;19.57;;;9.28;;
34302;SDS011;20785;50.020;19.916;2022-12-24T17:34:56;18.77;;;9.58;;
34302;SDS011;20785;50.020;19.916;2022-12-24T17:41:03;22.32;;;10.13;;
34302;SDS011;20785;50.020;19.916;2022-12-24T17:47:06;17.92;;;8.50;;
34302;SDS011;20785;50.020;19.916;2022-12-24T17:53:08;18.82;;;9.03;;
34302;SDS011;20785;50.020;19.916;2022-12-24T17:59:09;17.67;;;9.70;;
34302;SDS011;20785;50.020;19.916;2022-12-24T18:05:10;14.90;;;7.37;;
34302;SDS011;20785;50.020;19.916;2022-12-24T18:11:13;13.40;;;6.67;;
34302;SDS011;20785;50.020;19.916;2022-12-24T18:17:15;15.90;;;8.00;;
34302;SDS011;20785;50.020;19.916;2022-12-24T18:23:16;15.05;;;8.00;;
34302;SDS011;20785;50.020;19.916;2022-12-24T18:29:17;18.05;;;8.78;;
34302;SDS011;20785;50.020;19.916;2022-12-24T18:35:18;19.45;;;9.45;;
34302;SDS011;20785;50.020;19.916;2022-12-24T18:41:22;25.30;;;11.18;;
34302;SDS011;20785;50.020;19.916;2022-12-24T18:47:25;27.13;;;11.83;;
34302;SDS011;20785;50.020;19.916;2022-12-24T18:53:26;24.55;;;13.00;;
34302;SDS011;20785;50.020;19.916;2022-12-24T18:59:27;22.67;;;10.82;;
34302;SDS011;20785;50.020;19.916;2022-12-24T19:05:29;25.27;;;10.55;;
34302;SDS011;20785;50.020;19.916;2022-12-24T19:13:08;19.30;;;9.13;;
34302;SDS011;20785;50.020;19.916;2022-12-24T19:19:28;17.40;;;8.60;;
34302;SDS011;20785;50.020;19.916;2022-12-24T19:25:31;15.90;;;8.18;;
34302;SDS011;20785;50.020;19.916;2022-12-24T19:31:32;19.02;;;8.48;;
34302;SDS011;20785;50.020;19.916;2022-12-24T19:37:33;20.75;;;8.93;;
34302;SDS011;20785;50.020;19.916;2022-12-24T19:43:41;18.98;;;8.73;;
34302;SDS011;20785;50.020;19.916;2022-12-24T19:49:44;18.57;;;9.43;;
34302;SDS011;20785;50.020;19.916;2022-12-24T19:55:45;21.10;;;9.33;;
34302;SDS011;20785;50.020;19.916;2022-12-24T20:01:46;22.62;;;9.05;;
34302;SDS011;20785;50.020;19.916;2022-12-24T20:07:47;20.10;;;8.58;;
34302;SDS011;20785;50.020;19.916;2022-12-24T20:13:48;17.15;;;8.90;;
34302;SDS011;20785;50.020;19.916;2022-12-24T20:19:49;21.55;;;9.20;;
34302;SDS011;20785;50.020;19.916;2022-12-24T20:25:54;19.55;;;9.00;;
34302;SDS011;20785;50.020;19.916;2022-12-24T20:32:02;18.90;;;9.53;;
34302;SDS011;20785;50.020;19.916;2022-12-24T20:38:06;20.68;;;10.00;;
34302;SDS011;20785;50.020;19.916;2022-12-24T20:44:09;22.10;;;10.43;;
34302;SDS011;20785;50.020;19.916;2022-12-24T20:50:10;24.15;;;10.68;;
34302;SDS011;20785;50.020;19.916;2022-12-24T20:56:15;24.18;;;11.00;;
34302;SDS011;20785;50.020;19.916;2022-12-24T21:02:17;24.35;;;9.90;;
34302;SDS011;20785;50.020;19.916;2022-12-24T21:08:21;22.13;;;9.60;;
34302;SDS011;20785;50.020;19.916;2022-12-24T21:14:23;18.77;;;10.08;;
34302;SDS011;20785;50.020;19.916;2022-12-24T21:20:26;20.43;;;9.75;;
34302;SDS011;20785;50.020;19.916;2022-12-24T21:26:31;22.45;;;10.93;;
34302;SDS011;20785;50.020;19.916;2022-12-24T21:32:33;22.35;;;10.60;;
34302;SDS011;20785;50.020;19.916;2022-12-24T21:38:35;25.00;;;10.38;;
34302;SDS011;20785;50.020;19.916;2022-12-24T21:44:36;21.50;;;10.48;;
34302;SDS011;20785;50.020;19.916;2022-12-24T21:50:37;20.30;;;9.48;;
34302;SDS011;20785;50.020;19.916;2022-12-24T21:57:02;25.75;;;10.43;;
34302;SDS011;20785;50.020;19.916;2022-12-24T22:03:19;22.70;;;10.38;;
34302;SDS011;20785;50.020;19.916;2022-12-24T22:09:20;23.80;;;10.38;;
34302;SDS011;20785;50.020;19.916;2022-12-24T22:15:45;20.80;;;10.25;;
34302;SDS011;20785;50.020;19.916;2022-12-24T22:21:44;22.37;;;11.60;;
34302;SDS011;20785;50.020;19.916;2022-12-24T22:27:45;25.75;;;12.07;;
34302;SDS011;20785;50.020;19.916;2022-12-24T22:33:46;24.72;;;10.28;;
34302;SDS011;20785;50.020;19.916;2022-12-24T22:39:48;27.70;;;11.48;;
34302;SDS011;20785;50.020;19.916;2022-12-24T22:45:49;22.20;;;10.90;;
34302;SDS011;20785;50.020;19.916;2022-12-24T22:51:50;22.00;;;11.22;;
34302;SDS011;20785;50.020;19.916;2022-12-24T22:57:52;23.55;;;11.00;;
34302;SDS011;20785;50.020;19.916;2022-12-24T23:03:53;26.27;;;11.18;;
34302;SDS011;20785;50.020;19.916;2022-12-24T23:09:54;25.40;;;10.65;;
34302;SDS011;20785;50.020;19.916;2022-12-24T23:16:00;34.25;;;11.33;;
34302;SDS011;20785;50.020;19.916;2022-12-24T23:22:02;24.32;;;10.85;;
34302;SDS011;20785;50.020;19.916;2022-12-24T23:28:04;24.18;;;11.20;;
34302;SDS011;20785;50.020;19.916;2022-12-24T23:34:06;24.32;;;10.93;;
34302;SDS011;20785;50.020;19.916;2022-12-24T23:40:07;28.25;;;11.83;;
34302;SDS011;20785;50.020;19.916;2022-12-24T23:46:11;25.23;;;11.60;;
34302;SDS011;20785;50.020;19.916;2022-12-24T23:52:16;28.95;;;11.53;;
34302;SDS011;20785;50.020;19.916;2022-12-24T23:58:17;26.62;;;11.03;;
